sensor_id;sensor_type;location;lat;lon;timestamp;P1;durP1;ratioP1;P2;durP2;ratioP2
32611;SDS011;19030;49.478;8.986;2023-03-26T00:00:31;5.05;;;1.92;;
32611;SDS011;19030;49.478;8.986;2023-03-26T00:02:33;8.48;;;1.95;;
32611;SDS011;19030;49.478;8.986;2023-03-26T00:04:33;7.88;;;1.70;;
32611;SDS011;19030;49.478;8.986;2023-03-26T00:06:35;7.03;;;1.95;;
32611;SDS011;19030;49.478;8.986;2023-03-26T00:08:38;8.85;;;2.13;;
32611;SDS011;19030;49.478;8.986;2023-03-26T00:10:41;8.00;;;1.90;;
32611;SDS011;19030;49.478;8.986;2023-03-26T00:12:42;9.50;;;1.83;;
32611;SDS011;19030;49.478;8.986;2023-03-26T00:14:42;7.72;;;2.00;;
32611;SDS011;19030;49.478;8.986;2023-03-26T00:16:44;6.03;;;1.50;;
32611;SDS011;19030;49.478;8.986;2023-03-26T00:18:46;14.68;;;2.53;;
32611;SDS011;19030;49.478;8.986;2023-03-26T00:20:49;8.98;;;3.08;;
32611;SDS011;19030;49.478;8.986;2023-03-26T00:22:50;8.60;;;1.98;;
32611;SDS011;19030;49.478;8.986;2023-03-26T00:24:52;9.52;;;2.13;;
32611;SDS011;19030;49.478;8.986;2023-03-26T00:26:55;8.32;;;1.70;;
32611;SDS011;19030;49.478;8.986;2023-03-26T00:28:57;4.85;;;1.70;;
32611;SDS011;19030;49.478;8.986;2023-03-26T00:30:59;11.32;;;2.30;;
32611;SDS011;19030;49.478;8.986;2023-03-26T00:33:01;5.88;;;2.20;;
32611;SDS011;19030;49.478;8.986;2023-03-26T00:35:02;5.78;;;1.83;;
32611;SDS011;19030;49.478;8.986;2023-03-26T00:37:03;8.13;;;2.33;;
32611;SDS011;19030;49.478;8.986;2023-03-26T00:39:04;8.55;;;2.05;;
32611;SDS011;19030;49.478;8.986;2023-03-26T00:41:08;10.57;;;2.60;;
32611;SDS011;19030;49.478;8.986;2023-03-26T00:43:21;7.07;;;2.20;;
32611;SDS011;19030;49.478;8.986;2023-03-26T00:45:22;9.50;;;1.80;;
32611;SDS011;19030;49.478;8.986;2023-03-26T00:47:23;8.25;;;2.10;;
32611;SDS011;19030;49.478;8.986;2023-03-26T00:49:24;10.57;;;2.08;;
32611;SDS011;19030;49.478;8.986;2023-03-26T00:51:29;8.80;;;2.05;;
32611;SDS011;19030;49.478;8.986;2023-03-26T00:53:32;7.03;;;1.85;;
32611;SDS011;19030;49.478;8.986;2023-03-26T00:55:33;8.10;;;1.83;;
32611;SDS011;19030;49.478;8.986;2023-03-26T00:57:34;8.07;;;1.90;;
32611;SDS011;19030;49.478;8.986;2023-03-26T00:59:36;7.47;;;2.00;;
32611;SDS011;19030;49.478;8.986;2023-03-26T01:01:37;7.90;;;1.80;;
32611;SDS011;19030;49.478;8.986;2023-03-26T01:03:39;9.57;;;2.08;;
32611;SDS011;19030;49.478;8.986;2023-03-26T01:05:42;6.20;;;1.92;;
32611;SDS011;19030;49.478;8.986;2023-03-26T01:07:51;10.63;;;2.17;;
32611;SDS011;19030;49.478;8.986;2023-03-26T01:09:52;8.10;;;1.90;;
32611;SDS011;19030;49.478;8.986;2023-03-26T01:11:54;10.23;;;1.70;;
32611;SDS011;19030;49.478;8.986;2023-03-26T01:13:56;11.32;;;1.90;;
32611;SDS011;19030;49.478;8.986;2023-03-26T01:16:00;7.70;;;2.00;;
32611;SDS011;19030;49.478;8.986;2023-03-26T01:18:04;5.90;;;1.75;;
32611;SDS011;19030;49.478;8.986;2023-03-26T01:20:10;8.43;;;2.45;;
32611;SDS011;19030;49.478;8.986;2023-03-26T01:22:18;12.48;;;1.98;;
32611;SDS011;19030;49.478;8.986;2023-03-26T01:24:20;6.13;;;1.70;;
32611;SDS011;19030;49.478;8.986;2023-03-26T01:26:24;6.53;;;2.38;;
32611;SDS011;19030;49.478;8.986;2023-03-26T01:28:45;10.50;;;1.95;;
32611;SDS011;19030;49.478;8.986;2023-03-26T01:30:51;8.60;;;1.75;;
32611;SDS011;19030;49.478;8.986;2023-03-26T01:33:12;9.25;;;2.42;;
32611;SDS011;19030;49.478;8.986;2023-03-26T01:35:46;7.88;;;2.20;;
32611;SDS011;19030;49.478;8.986;2023-03-26T01:40:24;14.13;;;2.35;;
32611;SDS011;19030;49.478;8.986;2023-03-26T01:42:51;16.58;;;4.88;;
32611;SDS011;19030;49.478;8.986;2023-03-26T01:45:22;7.90;;;1.90;;
32611;SDS011;19030;49.478;8.986;2023-03-26T01:47:26;9.02;;;2.00;;
32611;SDS011;19030;49.478;8.986;2023-03-26T01:49:28;7.82;;;2.13;;
32611;SDS011;19030;49.478;8.986;2023-03-26T01:51:32;10.35;;;2.00;;
32611;SDS011;19030;49.478;8.986;2023-03-26T01:53:36;11.82;;;2.00;;
32611;SDS011;19030;49.478;8.986;2023-03-26T01:55:52;7.65;;;2.05;;
32611;SDS011;19030;49.478;8.986;2023-03-26T02:00:24;10.32;;;2.35;;
32611;SDS011;19030;49.478;8.986;2023-03-26T02:03:12;6.55;;;1.80;;
32611;SDS011;19030;49.478;8.986;2023-03-26T02:05:24;11.20;;;1.98;;
32611;SDS011;19030;49.478;8.986;2023-03-26T02:09:39;14.73;;;2.25;;
32611;SDS011;19030;49.478;8.986;2023-03-26T02:11:44;7.53;;;1.92;;
32611;SDS011;19030;49.478;8.986;2023-03-26T02:13:47;8.00;;;1.70;;
32611;SDS011;19030;49.478;8.986;2023-03-26T02:16:01;8.25;;;2.22;;
32611;SDS011;19030;49.478;8.986;2023-03-26T02:18:03;12.73;;;2.55;;
32611;SDS011;19030;49.478;8.986;2023-03-26T02:20:04;10.30;;;2.05;;
32611;SDS011;19030;49.478;8.986;2023-03-26T02:22:10;9.90;;;2.30;;
32611;SDS011;19030;49.478;8.986;2023-03-26T02:24:16;8.63;;;2.63;;
32611;SDS011;19030;49.478;8.986;2023-03-26T02:26:18;7.53;;;1.85;;
32611;SDS011;19030;49.478;8.986;2023-03-26T02:28:39;8.00;;;1.92;;
32611;SDS011;19030;49.478;8.986;2023-03-26T02:30:40;6.95;;;1.70;;
32611;SDS011;19030;49.478;8.986;2023-03-26T02:32:42;10.73;;;2.28;;
32611;SDS011;19030;49.478;8.986;2023-03-26T02:34:44;10.98;;;2.13;;
32611;SDS011;19030;49.478;8.986;2023-03-26T02:36:44;6.72;;;2.28;;
32611;SDS011;19030;49.478;8.986;2023-03-26T02:38:46;6.68;;;1.77;;
32611;SDS011;19030;49.478;8.986;2023-03-26T02:40:48;10.02;;;2.33;;
32611;SDS011;19030;49.478;8.986;2023-03-26T02:42:48;14.40;;;2.20;;
32611;SDS011;19030;49.478;8.986;2023-03-26T02:44:50;10.15;;;3.03;;
32611;SDS011;19030;49.478;8.986;2023-03-26T02:46:53;7.43;;;2.00;;
32611;SDS011;19030;49.478;8.986;2023-03-26T02:49:19;11.35;;;2.30;;
32611;SDS011;19030;49.478;8.986;2023-03-26T02:51:20;11.70;;;2.95;;
32611;SDS011;19030;49.478;8.986;2023-03-26T02:53:31;10.40;;;2.15;;
32611;SDS011;19030;49.478;8.986;2023-03-26T02:55:50;10.35;;;2.50;;
32611;SDS011;19030;49.478;8.986;2023-03-26T02:57:52;8.85;;;1.90;;
32611;SDS011;19030;49.478;8.986;2023-03-26T02:59:56;6.97;;;1.63;;
32611;SDS011;19030;49.478;8.986;2023-03-26T03:02:08;7.75;;;2.05;;
32611;SDS011;19030;49.478;8.986;2023-03-26T03:04:11;11.02;;;2.13;;
32611;SDS011;19030;49.478;8.986;2023-03-26T03:06:12;11.00;;;2.22;;
32611;SDS011;19030;49.478;8.986;2023-03-26T03:08:21;12.00;;;2.60;;
32611;SDS011;19030;49.478;8.986;2023-03-26T03:10:53;8.20;;;1.98;;
32611;SDS011;19030;49.478;8.986;2023-03-26T03:13:04;7.65;;;2.10;;
32611;SDS011;19030;49.478;8.986;2023-03-26T03:15:07;7.45;;;1.67;;
32611;SDS011;19030;49.478;8.986;2023-03-26T03:17:08;8.85;;;2.53;;
32611;SDS011;19030;49.478;8.986;2023-03-26T03:19:09;9.88;;;2.08;;
32611;SDS011;19030;49.478;8.986;2023-03-26T03:21:12;14.30;;;2.15;;
32611;SDS011;19030;49.478;8.986;2023-03-26T03:23:13;8.15;;;2.03;;
32611;SDS011;19030;49.478;8.986;2023-03-26T03:25:14;10.90;;;2.20;;
32611;SDS011;19030;49.478;8.986;2023-03-26T03:27:18;8.63;;;2.53;;
32611;SDS011;19030;49.478;8.986;2023-03-26T03:29:27;7.78;;;2.42;;
32611;SDS011;19030;49.478;8.986;2023-03-26T03:31:29;10.13;;;2.42;;
32611;SDS011;19030;49.478;8.986;2023-03-26T03:33:35;6.25;;;1.95;;
32611;SDS011;19030;49.478;8.986;2023-03-26T03:35:35;7.22;;;1.83;;
32611;SDS011;19030;49.478;8.986;2023-03-26T03:37:37;8.38;;;2.40;;
32611;SDS011;19030;49.478;8.986;2023-03-26T03:39:39;10.70;;;2.00;;
32611;SDS011;19030;49.478;8.986;2023-03-26T03:41:40;12.35;;;2.17;;
32611;SDS011;19030;49.478;8.986;2023-03-26T03:43:46;7.35;;;2.22;;
32611;SDS011;19030;49.478;8.986;2023-03-26T03:45:51;9.40;;;2.53;;
32611;SDS011;19030;49.478;8.986;2023-03-26T03:48:10;8.30;;;2.22;;
32611;SDS011;19030;49.478;8.986;2023-03-26T03:50:18;6.88;;;2.15;;
32611;SDS011;19030;49.478;8.986;2023-03-26T03:52:32;8.90;;;2.15;;
32611;SDS011;19030;49.478;8.986;2023-03-26T03:54:33;9.23;;;2.40;;
32611;SDS011;19030;49.478;8.986;2023-03-26T03:56:42;10.15;;;2.58;;
32611;SDS011;19030;49.478;8.986;2023-03-26T03:59:04;9.63;;;2.00;;
32611;SDS011;19030;49.478;8.986;2023-03-26T04:01:08;8.85;;;2.45;;
32611;SDS011;19030;49.478;8.986;2023-03-26T04:03:27;8.63;;;2.47;;
32611;SDS011;19030;49.478;8.986;2023-03-26T04:05:28;9.00;;;2.45;;
32611;SDS011;19030;49.478;8.986;2023-03-26T04:07:29;8.57;;;2.28;;
32611;SDS011;19030;49.478;8.986;2023-03-26T04:09:39;8.43;;;2.20;;
32611;SDS011;19030;49.478;8.986;2023-03-26T04:11:47;8.30;;;2.25;;
32611;SDS011;19030;49.478;8.986;2023-03-26T04:14:05;10.32;;;2.88;;
32611;SDS011;19030;49.478;8.986;2023-03-26T04:16:26;11.95;;;2.33;;
32611;SDS011;19030;49.478;8.986;2023-03-26T04:18:27;9.52;;;2.70;;
32611;SDS011;19030;49.478;8.986;2023-03-26T04:20:31;12.52;;;2.20;;
32611;SDS011;19030;49.478;8.986;2023-03-26T04:22:33;9.82;;;1.92;;
32611;SDS011;19030;49.478;8.986;2023-03-26T04:24:38;9.10;;;2.47;;
32611;SDS011;19030;49.478;8.986;2023-03-26T04:27:00;9.52;;;2.33;;
32611;SDS011;19030;49.478;8.986;2023-03-26T04:29:07;6.88;;;1.98;;
32611;SDS011;19030;49.478;8.986;2023-03-26T04:31:12;8.93;;;2.30;;
32611;SDS011;19030;49.478;8.986;2023-03-26T04:33:16;6.60;;;1.83;;
32611;SDS011;19030;49.478;8.986;2023-03-26T04:35:17;9.57;;;2.17;;
32611;SDS011;19030;49.478;8.986;2023-03-26T04:37:31;9.07;;;2.47;;
32611;SDS011;19030;49.478;8.986;2023-03-26T04:39:44;13.35;;;2.58;;
32611;SDS011;19030;49.478;8.986;2023-03-26T04:42:08;12.05;;;2.42;;
32611;SDS011;19030;49.478;8.986;2023-03-26T04:44:21;8.48;;;2.42;;
32611;SDS011;19030;49.478;8.986;2023-03-26T04:46:27;13.25;;;2.28;;
32611;SDS011;19030;49.478;8.986;2023-03-26T04:48:39;8.98;;;2.55;;
32611;SDS011;19030;49.478;8.986;2023-03-26T04:50:42;16.17;;;5.78;;
32611;SDS011;19030;49.478;8.986;2023-03-26T04:52:44;11.85;;;3.65;;
32611;SDS011;19030;49.478;8.986;2023-03-26T04:57:37;7.18;;;2.60;;
32611;SDS011;19030;49.478;8.986;2023-03-26T04:59:48;12.73;;;3.17;;
32611;SDS011;19030;49.478;8.986;2023-03-26T05:01:49;8.95;;;2.67;;
32611;SDS011;19030;49.478;8.986;2023-03-26T05:03:51;11.20;;;3.25;;
32611;SDS011;19030;49.478;8.986;2023-03-26T05:05:52;9.30;;;3.38;;
32611;SDS011;19030;49.478;8.986;2023-03-26T05:07:53;10.43;;;2.03;;
32611;SDS011;19030;49.478;8.986;2023-03-26T05:09:54;12.70;;;2.80;;
32611;SDS011;19030;49.478;8.986;2023-03-26T05:12:06;13.65;;;2.60;;
32611;SDS011;19030;49.478;8.986;2023-03-26T05:14:17;7.50;;;2.28;;
32611;SDS011;19030;49.478;8.986;2023-03-26T05:16:18;8.05;;;2.60;;
32611;SDS011;19030;49.478;8.986;2023-03-26T05:18:26;7.57;;;2.00;;
32611;SDS011;19030;49.478;8.986;2023-03-26T05:20:28;9.13;;;2.30;;
32611;SDS011;19030;49.478;8.986;2023-03-26T05:22:30;6.38;;;1.98;;
32611;SDS011;19030;49.478;8.986;2023-03-26T05:24:50;9.38;;;2.58;;
32611;SDS011;19030;49.478;8.986;2023-03-26T05:26:51;12.35;;;2.45;;
32611;SDS011;19030;49.478;8.986;2023-03-26T05:28:56;7.65;;;2.67;;
32611;SDS011;19030;49.478;8.986;2023-03-26T05:31:02;14.68;;;2.08;;
32611;SDS011;19030;49.478;8.986;2023-03-26T05:33:07;8.52;;;2.40;;
32611;SDS011;19030;49.478;8.986;2023-03-26T05:35:23;9.00;;;2.55;;
32611;SDS011;19030;49.478;8.986;2023-03-26T05:37:24;13.82;;;2.95;;
32611;SDS011;19030;49.478;8.986;2023-03-26T05:39:36;10.15;;;3.83;;
32611;SDS011;19030;49.478;8.986;2023-03-26T05:41:55;10.13;;;2.70;;
32611;SDS011;19030;49.478;8.986;2023-03-26T05:44:02;8.10;;;2.70;;
32611;SDS011;19030;49.478;8.986;2023-03-26T05:46:04;12.45;;;2.85;;
32611;SDS011;19030;49.478;8.986;2023-03-26T05:48:05;11.70;;;2.50;;
32611;SDS011;19030;49.478;8.986;2023-03-26T05:50:07;11.65;;;3.20;;
32611;SDS011;19030;49.478;8.986;2023-03-26T05:52:10;30.25;;;10.40;;
32611;SDS011;19030;49.478;8.986;2023-03-26T05:54:38;27.88;;;10.93;;
32611;SDS011;19030;49.478;8.986;2023-03-26T05:57:02;23.98;;;7.88;;
32611;SDS011;19030;49.478;8.986;2023-03-26T05:59:28;9.07;;;3.05;;
32611;SDS011;19030;49.478;8.986;2023-03-26T06:01:48;10.63;;;3.75;;
32611;SDS011;19030;49.478;8.986;2023-03-26T06:04:01;9.50;;;3.88;;
32611;SDS011;19030;49.478;8.986;2023-03-26T06:06:06;13.63;;;3.92;;
32611;SDS011;19030;49.478;8.986;2023-03-26T06:08:15;12.98;;;5.10;;
32611;SDS011;19030;49.478;8.986;2023-03-26T06:10:22;15.05;;;4.88;;
32611;SDS011;19030;49.478;8.986;2023-03-26T06:12:22;17.27;;;5.43;;
32611;SDS011;19030;49.478;8.986;2023-03-26T06:14:23;13.95;;;5.28;;
32611;SDS011;19030;49.478;8.986;2023-03-26T06:16:42;11.85;;;3.20;;
32611;SDS011;19030;49.478;8.986;2023-03-26T06:18:54;11.57;;;2.65;;
32611;SDS011;19030;49.478;8.986;2023-03-26T06:21:04;11.63;;;4.13;;
32611;SDS011;19030;49.478;8.986;2023-03-26T06:23:15;7.35;;;2.28;;
32611;SDS011;19030;49.478;8.986;2023-03-26T06:25:36;8.40;;;2.20;;
32611;SDS011;19030;49.478;8.986;2023-03-26T06:27:49;13.25;;;2.72;;
32611;SDS011;19030;49.478;8.986;2023-03-26T06:30:13;11.82;;;2.47;;
32611;SDS011;19030;49.478;8.986;2023-03-26T06:32:33;5.82;;;1.77;;
32611;SDS011;19030;49.478;8.986;2023-03-26T06:34:41;8.02;;;2.00;;
32611;SDS011;19030;49.478;8.986;2023-03-26T06:36:42;11.18;;;2.75;;
32611;SDS011;19030;49.478;8.986;2023-03-26T06:38:42;9.77;;;3.08;;
32611;SDS011;19030;49.478;8.986;2023-03-26T06:40:43;22.60;;;7.40;;
32611;SDS011;19030;49.478;8.986;2023-03-26T06:43:04;18.67;;;6.22;;
32611;SDS011;19030;49.478;8.986;2023-03-26T06:45:28;17.65;;;7.60;;
32611;SDS011;19030;49.478;8.986;2023-03-26T06:48:07;18.77;;;6.35;;
32611;SDS011;19030;49.478;8.986;2023-03-26T06:50:29;18.80;;;6.93;;
32611;SDS011;19030;49.478;8.986;2023-03-26T06:52:54;17.88;;;6.53;;
32611;SDS011;19030;49.478;8.986;2023-03-26T06:55:16;17.67;;;7.07;;
32611;SDS011;19030;49.478;8.986;2023-03-26T06:57:26;17.20;;;7.05;;
32611;SDS011;19030;49.478;8.986;2023-03-26T06:59:45;17.35;;;6.78;;
32611;SDS011;19030;49.478;8.986;2023-03-26T07:02:04;10.63;;;3.45;;
32611;SDS011;19030;49.478;8.986;2023-03-26T07:04:23;8.73;;;2.70;;
32611;SDS011;19030;49.478;8.986;2023-03-26T07:06:42;5.50;;;1.90;;
32611;SDS011;19030;49.478;8.986;2023-03-26T07:09:01;8.82;;;2.70;;
32611;SDS011;19030;49.478;8.986;2023-03-26T07:11:21;5.35;;;2.17;;
32611;SDS011;19030;49.478;8.986;2023-03-26T07:13:44;7.88;;;2.55;;
32611;SDS011;19030;49.478;8.986;2023-03-26T07:16:05;9.32;;;2.50;;
32611;SDS011;19030;49.478;8.986;2023-03-26T07:18:15;7.55;;;2.90;;
32611;SDS011;19030;49.478;8.986;2023-03-26T07:20:17;11.68;;;3.70;;
32611;SDS011;19030;49.478;8.986;2023-03-26T07:22:20;8.88;;;4.45;;
32611;SDS011;19030;49.478;8.986;2023-03-26T07:24:42;7.25;;;3.17;;
32611;SDS011;19030;49.478;8.986;2023-03-26T07:27:09;13.52;;;5.65;;
32611;SDS011;19030;49.478;8.986;2023-03-26T07:29:48;17.35;;;6.25;;
32611;SDS011;19030;49.478;8.986;2023-03-26T07:34:51;13.82;;;3.95;;
32611;SDS011;19030;49.478;8.986;2023-03-26T07:37:09;13.32;;;4.22;;
32611;SDS011;19030;49.478;8.986;2023-03-26T07:47:35;10.43;;;3.90;;
32611;SDS011;19030;49.478;8.986;2023-03-26T07:49:57;10.18;;;3.83;;
32611;SDS011;19030;49.478;8.986;2023-03-26T07:52:14;14.65;;;8.05;;
32611;SDS011;19030;49.478;8.986;2023-03-26T07:54:27;13.05;;;5.68;;
32611;SDS011;19030;49.478;8.986;2023-03-26T07:59:38;13.98;;;5.47;;
32611;SDS011;19030;49.478;8.986;2023-03-26T08:07:23;9.35;;;3.05;;
32611;SDS011;19030;49.478;8.986;2023-03-26T08:12:24;8.40;;;1.95;;
32611;SDS011;19030;49.478;8.986;2023-03-26T08:14:52;9.57;;;2.80;;
32611;SDS011;19030;49.478;8.986;2023-03-26T08:17:10;11.30;;;4.38;;
32611;SDS011;19030;49.478;8.986;2023-03-26T08:21:41;9.90;;;3.70;;
32611;SDS011;19030;49.478;8.986;2023-03-26T08:24:04;11.45;;;4.53;;
32611;SDS011;19030;49.478;8.986;2023-03-26T08:31:08;10.13;;;3.22;;
32611;SDS011;19030;49.478;8.986;2023-03-26T08:33:13;8.70;;;3.65;;
32611;SDS011;19030;49.478;8.986;2023-03-26T08:35:17;11.27;;;3.33;;
32611;SDS011;19030;49.478;8.986;2023-03-26T08:37:17;13.40;;;3.85;;
32611;SDS011;19030;49.478;8.986;2023-03-26T08:39:18;8.65;;;3.17;;
32611;SDS011;19030;49.478;8.986;2023-03-26T08:41:32;7.75;;;3.10;;
32611;SDS011;19030;49.478;8.986;2023-03-26T08:48:12;8.80;;;2.45;;
32611;SDS011;19030;49.478;8.986;2023-03-26T08:50:53;11.73;;;2.80;;
32611;SDS011;19030;49.478;8.986;2023-03-26T08:55:55;12.82;;;3.17;;
32611;SDS011;19030;49.478;8.986;2023-03-26T08:58:25;7.50;;;2.35;;
32611;SDS011;19030;49.478;8.986;2023-03-26T09:03:13;8.35;;;2.38;;
32611;SDS011;19030;49.478;8.986;2023-03-26T09:10:39;7.43;;;2.38;;
32611;SDS011;19030;49.478;8.986;2023-03-26T09:13:19;10.05;;;2.65;;
32611;SDS011;19030;49.478;8.986;2023-03-26T09:15:54;7.30;;;2.22;;
32611;SDS011;19030;49.478;8.986;2023-03-26T09:37:24;6.07;;;2.60;;
32611;SDS011;19030;49.478;8.986;2023-03-26T09:40:03;10.70;;;3.92;;
32611;SDS011;19030;49.478;8.986;2023-03-26T09:46:42;6.28;;;2.83;;
32611;SDS011;19030;49.478;8.986;2023-03-26T09:53:38;6.90;;;2.10;;
32611;SDS011;19030;49.478;8.986;2023-03-26T10:00:21;7.80;;;2.35;;
32611;SDS011;19030;49.478;8.986;2023-03-26T10:04:51;5.88;;;2.22;;
32611;SDS011;19030;49.478;8.986;2023-03-26T10:09:16;10.15;;;3.30;;
32611;SDS011;19030;49.478;8.986;2023-03-26T10:13:53;7.93;;;2.75;;
32611;SDS011;19030;49.478;8.986;2023-03-26T10:16:14;5.88;;;2.58;;
32611;SDS011;19030;49.478;8.986;2023-03-26T10:21:12;8.30;;;2.72;;
32611;SDS011;19030;49.478;8.986;2023-03-26T10:23:37;7.03;;;2.80;;
32611;SDS011;19030;49.478;8.986;2023-03-26T10:30:58;7.03;;;2.83;;
32611;SDS011;19030;49.478;8.986;2023-03-26T10:33:17;7.20;;;2.60;;
32611;SDS011;19030;49.478;8.986;2023-03-26T10:38:39;7.68;;;2.88;;
32611;SDS011;19030;49.478;8.986;2023-03-26T10:41:11;12.48;;;3.30;;
32611;SDS011;19030;49.478;8.986;2023-03-26T10:43:40;10.98;;;2.70;;
32611;SDS011;19030;49.478;8.986;2023-03-26T10:48:59;6.50;;;2.50;;
32611;SDS011;19030;49.478;8.986;2023-03-26T10:53:42;7.68;;;3.30;;
32611;SDS011;19030;49.478;8.986;2023-03-26T10:55:53;16.63;;;4.72;;
32611;SDS011;19030;49.478;8.986;2023-03-26T10:58:20;10.45;;;3.53;;
32611;SDS011;19030;49.478;8.986;2023-03-26T11:00:23;6.70;;;2.42;;
32611;SDS011;19030;49.478;8.986;2023-03-26T11:02:26;8.68;;;3.45;;
32611;SDS011;19030;49.478;8.986;2023-03-26T11:09:39;9.73;;;2.83;;
32611;SDS011;19030;49.478;8.986;2023-03-26T11:14:23;8.50;;;3.20;;
32611;SDS011;19030;49.478;8.986;2023-03-26T11:26:55;17.35;;;7.93;;
32611;SDS011;19030;49.478;8.986;2023-03-26T11:33:39;8.55;;;2.80;;
32611;SDS011;19030;49.478;8.986;2023-03-26T11:35:47;7.60;;;2.72;;
32611;SDS011;19030;49.478;8.986;2023-03-26T11:39:53;8.18;;;2.50;;
32611;SDS011;19030;49.478;8.986;2023-03-26T11:41:59;7.00;;;2.25;;
32611;SDS011;19030;49.478;8.986;2023-03-26T11:44:26;9.20;;;2.85;;
32611;SDS011;19030;49.478;8.986;2023-03-26T11:46:30;6.20;;;2.60;;
32611;SDS011;19030;49.478;8.986;2023-03-26T11:50:42;9.07;;;3.08;;
32611;SDS011;19030;49.478;8.986;2023-03-26T11:52:46;7.63;;;2.55;;
32611;SDS011;19030;49.478;8.986;2023-03-26T11:54:47;5.93;;;2.90;;
32611;SDS011;19030;49.478;8.986;2023-03-26T11:56:53;6.82;;;2.40;;
32611;SDS011;19030;49.478;8.986;2023-03-26T11:59:02;8.23;;;2.30;;
32611;SDS011;19030;49.478;8.986;2023-03-26T12:01:15;4.15;;;1.95;;
32611;SDS011;19030;49.478;8.986;2023-03-26T12:03:29;5.20;;;2.13;;
32611;SDS011;19030;49.478;8.986;2023-03-26T12:05:30;5.38;;;2.72;;
32611;SDS011;19030;49.478;8.986;2023-03-26T12:12:05;4.32;;;1.80;;
32611;SDS011;19030;49.478;8.986;2023-03-26T12:14:12;4.47;;;1.98;;
32611;SDS011;19030;49.478;8.986;2023-03-26T12:16:19;6.65;;;2.20;;
32611;SDS011;19030;49.478;8.986;2023-03-26T12:18:24;5.65;;;2.08;;
32611;SDS011;19030;49.478;8.986;2023-03-26T12:22:33;4.03;;;2.08;;
32611;SDS011;19030;49.478;8.986;2023-03-26T12:24:36;7.10;;;2.15;;
32611;SDS011;19030;49.478;8.986;2023-03-26T12:26:38;5.15;;;1.92;;
32611;SDS011;19030;49.478;8.986;2023-03-26T12:28:45;5.30;;;2.30;;
32611;SDS011;19030;49.478;8.986;2023-03-26T12:30:50;3.80;;;2.20;;
32611;SDS011;19030;49.478;8.986;2023-03-26T12:33:00;5.15;;;2.08;;
32611;SDS011;19030;49.478;8.986;2023-03-26T12:35:14;7.55;;;2.42;;
32611;SDS011;19030;49.478;8.986;2023-03-26T12:37:33;5.20;;;2.40;;
32611;SDS011;19030;49.478;8.986;2023-03-26T12:39:41;8.68;;;2.67;;
32611;SDS011;19030;49.478;8.986;2023-03-26T12:41:42;4.60;;;2.40;;
32611;SDS011;19030;49.478;8.986;2023-03-26T12:43:50;6.78;;;2.13;;
32611;SDS011;19030;49.478;8.986;2023-03-26T12:45:55;4.72;;;2.03;;
32611;SDS011;19030;49.478;8.986;2023-03-26T12:47:58;4.55;;;1.90;;
32611;SDS011;19030;49.478;8.986;2023-03-26T12:49:59;6.78;;;1.67;;
32611;SDS011;19030;49.478;8.986;2023-03-26T12:52:07;8.63;;;2.83;;
32611;SDS011;19030;49.478;8.986;2023-03-26T13:01:34;7.35;;;3.38;;
32611;SDS011;19030;49.478;8.986;2023-03-26T13:06:25;14.18;;;12.98;;
32611;SDS011;19030;49.478;8.986;2023-03-26T13:13:09;3.67;;;2.25;;
32611;SDS011;19030;49.478;8.986;2023-03-26T13:21:55;14.50;;;7.60;;
32611;SDS011;19030;49.478;8.986;2023-03-26T13:24:09;13.85;;;7.05;;
32611;SDS011;19030;49.478;8.986;2023-03-26T13:26:43;11.15;;;10.10;;
32611;SDS011;19030;49.478;8.986;2023-03-26T13:30:55;13.77;;;11.75;;
32611;SDS011;19030;49.478;8.986;2023-03-26T13:37:48;10.98;;;9.98;;
32611;SDS011;19030;49.478;8.986;2023-03-26T13:39:56;11.68;;;10.00;;
32611;SDS011;19030;49.478;8.986;2023-03-26T13:42:15;9.90;;;9.00;;
32611;SDS011;19030;49.478;8.986;2023-03-26T13:44:40;10.02;;;8.85;;
32611;SDS011;19030;49.478;8.986;2023-03-26T13:46:57;10.00;;;9.10;;
32611;SDS011;19030;49.478;8.986;2023-03-26T13:49:14;10.55;;;9.30;;
32611;SDS011;19030;49.478;8.986;2023-03-26T13:51:36;9.35;;;8.50;;
32611;SDS011;19030;49.478;8.986;2023-03-26T13:56:22;9.43;;;6.05;;
32611;SDS011;19030;49.478;8.986;2023-03-26T13:58:46;8.63;;;7.20;;
32611;SDS011;19030;49.478;8.986;2023-03-26T14:03:22;9.07;;;7.82;;
32611;SDS011;19030;49.478;8.986;2023-03-26T14:05:33;10.85;;;8.50;;
32611;SDS011;19030;49.478;8.986;2023-03-26T14:10:36;8.27;;;7.43;;
32611;SDS011;19030;49.478;8.986;2023-03-26T14:12:36;7.82;;;5.35;;
32611;SDS011;19030;49.478;8.986;2023-03-26T14:14:57;5.90;;;3.78;;
32611;SDS011;19030;49.478;8.986;2023-03-26T14:17:05;9.13;;;6.30;;
32611;SDS011;19030;49.478;8.986;2023-03-26T14:26:45;6.15;;;1.80;;
32611;SDS011;19030;49.478;8.986;2023-03-26T14:31:38;4.78;;;2.10;;
32611;SDS011;19030;49.478;8.986;2023-03-26T14:40:56;6.97;;;1.95;;
32611;SDS011;19030;49.478;8.986;2023-03-26T14:45:27;3.72;;;1.83;;
32611;SDS011;19030;49.478;8.986;2023-03-26T14:47:39;4.43;;;2.00;;
32611;SDS011;19030;49.478;8.986;2023-03-26T14:50:23;5.90;;;1.95;;
32611;SDS011;19030;49.478;8.986;2023-03-26T14:52:48;3.70;;;2.00;;
32611;SDS011;19030;49.478;8.986;2023-03-26T14:54:51;3.85;;;1.80;;
32611;SDS011;19030;49.478;8.986;2023-03-26T14:57:10;9.55;;;2.15;;
32611;SDS011;19030;49.478;8.986;2023-03-26T15:06:49;4.45;;;1.77;;
32611;SDS011;19030;49.478;8.986;2023-03-26T15:09:02;5.82;;;2.10;;
32611;SDS011;19030;49.478;8.986;2023-03-26T15:33:15;11.88;;;3.67;;
32611;SDS011;19030;49.478;8.986;2023-03-26T15:35:45;6.03;;;1.80;;
32611;SDS011;19030;49.478;8.986;2023-03-26T15:42:30;10.88;;;2.35;;
32611;SDS011;19030;49.478;8.986;2023-03-26T15:49:29;6.60;;;2.33;;
32611;SDS011;19030;49.478;8.986;2023-03-26T15:51:51;7.25;;;1.70;;
32611;SDS011;19030;49.478;8.986;2023-03-26T15:54:00;6.00;;;2.40;;
32611;SDS011;19030;49.478;8.986;2023-03-26T15:56:24;10.50;;;5.07;;
32611;SDS011;19030;49.478;8.986;2023-03-26T16:03:43;4.82;;;1.73;;
32611;SDS011;19030;49.478;8.986;2023-03-26T16:06:27;4.57;;;1.60;;
32611;SDS011;19030;49.478;8.986;2023-03-26T16:10:58;6.15;;;2.20;;
32611;SDS011;19030;49.478;8.986;2023-03-26T16:15:24;11.05;;;3.97;;
32611;SDS011;19030;49.478;8.986;2023-03-26T16:17:38;2.13;;;1.17;;
32611;SDS011;19030;49.478;8.986;2023-03-26T16:20:21;4.18;;;1.35;;
32611;SDS011;19030;49.478;8.986;2023-03-26T16:27:25;6.55;;;2.70;;
32611;SDS011;19030;49.478;8.986;2023-03-26T16:29:31;3.83;;;1.20;;
32611;SDS011;19030;49.478;8.986;2023-03-26T16:31:33;2.85;;;1.10;;
32611;SDS011;19030;49.478;8.986;2023-03-26T16:33:36;3.38;;;2.38;;
32611;SDS011;19030;49.478;8.986;2023-03-26T16:38:22;2.03;;;1.30;;
32611;SDS011;19030;49.478;8.986;2023-03-26T16:40:27;5.07;;;1.30;;
32611;SDS011;19030;49.478;8.986;2023-03-26T16:42:37;4.38;;;2.40;;
32611;SDS011;19030;49.478;8.986;2023-03-26T16:46:50;1.40;;;1.10;;
32611;SDS011;19030;49.478;8.986;2023-03-26T16:51:23;4.13;;;1.85;;
32611;SDS011;19030;49.478;8.986;2023-03-26T16:55:55;1.30;;;1.17;;
32611;SDS011;19030;49.478;8.986;2023-03-26T16:58:25;2.72;;;1.30;;
32611;SDS011;19030;49.478;8.986;2023-03-26T17:00:45;4.05;;;1.63;;
32611;SDS011;19030;49.478;8.986;2023-03-26T17:05:17;3.70;;;1.80;;
32611;SDS011;19030;49.478;8.986;2023-03-26T17:07:28;3.35;;;1.67;;
32611;SDS011;19030;49.478;8.986;2023-03-26T17:14:29;4.65;;;1.35;;
32611;SDS011;19030;49.478;8.986;2023-03-26T17:17:07;3.55;;;1.60;;
32611;SDS011;19030;49.478;8.986;2023-03-26T17:24:17;3.38;;;1.60;;
32611;SDS011;19030;49.478;8.986;2023-03-26T17:31:31;12.73;;;5.22;;
32611;SDS011;19030;49.478;8.986;2023-03-26T17:33:38;5.55;;;1.88;;
32611;SDS011;19030;49.478;8.986;2023-03-26T17:35:46;5.03;;;2.20;;
32611;SDS011;19030;49.478;8.986;2023-03-26T17:37:49;3.17;;;1.52;;
32611;SDS011;19030;49.478;8.986;2023-03-26T17:46:49;24.83;;;9.63;;
32611;SDS011;19030;49.478;8.986;2023-03-26T17:49:05;27.25;;;9.70;;